sensor_id;sensor_type;location;lat;lon;timestamp;P1;durP1;ratioP1;P2;durP2;ratioP2
56242;SDS011;42155;53.096;23.226;2023-02-28T00:00:23;87.47;;;32.70;;
56242;SDS011;42155;53.096;23.226;2023-02-28T00:02:24;89.95;;;33.60;;
56242;SDS011;42155;53.096;23.226;2023-02-28T00:04:24;85.90;;;33.70;;
56242;SDS011;42155;53.096;23.226;2023-02-28T00:06:24;84.85;;;32.40;;
56242;SDS011;42155;53.096;23.226;2023-02-28T00:08:25;84.05;;;32.33;;
56242;SDS011;42155;53.096;23.226;2023-02-28T00:10:29;84.00;;;32.30;;
56242;SDS011;42155;53.096;23.226;2023-02-28T00:12:31;78.43;;;30.58;;
56242;SDS011;42155;53.096;23.226;2023-02-28T00:14:31;83.57;;;33.05;;
56242;SDS011;42155;53.096;23.226;2023-02-28T00:16:32;85.07;;;32.47;;
56242;SDS011;42155;53.096;23.226;2023-02-28T00:18:32;82.35;;;33.95;;
56242;SDS011;42155;53.096;23.226;2023-02-28T00:20:33;87.40;;;34.22;;
56242;SDS011;42155;53.096;23.226;2023-02-28T00:22:33;79.72;;;33.88;;
56242;SDS011;42155;53.096;23.226;2023-02-28T00:24:34;80.45;;;30.70;;
56242;SDS011;42155;53.096;23.226;2023-02-28T00:26:34;85.05;;;34.10;;
56242;SDS011;42155;53.096;23.226;2023-02-28T00:28:34;80.43;;;31.60;;
56242;SDS011;42155;53.096;23.226;2023-02-28T00:30:35;83.43;;;33.47;;
56242;SDS011;42155;53.096;23.226;2023-02-28T00:32:35;84.88;;;32.67;;
56242;SDS011;42155;53.096;23.226;2023-02-28T00:34:35;84.35;;;33.35;;
56242;SDS011;42155;53.096;23.226;2023-02-28T00:36:36;79.72;;;31.58;;
56242;SDS011;42155;53.096;23.226;2023-02-28T00:38:36;77.70;;;30.67;;
56242;SDS011;42155;53.096;23.226;2023-02-28T00:40:38;79.88;;;31.35;;
56242;SDS011;42155;53.096;23.226;2023-02-28T00:42:38;77.68;;;29.17;;
56242;SDS011;42155;53.096;23.226;2023-02-28T00:44:39;80.97;;;31.27;;
56242;SDS011;42155;53.096;23.226;2023-02-28T00:46:39;75.70;;;29.00;;
56242;SDS011;42155;53.096;23.226;2023-02-28T00:48:39;71.90;;;30.48;;
56242;SDS011;42155;53.096;23.226;2023-02-28T00:50:40;83.72;;;33.22;;
56242;SDS011;42155;53.096;23.226;2023-02-28T00:52:40;78.85;;;29.52;;
56242;SDS011;42155;53.096;23.226;2023-02-28T00:54:40;74.18;;;29.15;;
56242;SDS011;42155;53.096;23.226;2023-02-28T00:56:41;67.95;;;28.88;;
56242;SDS011;42155;53.096;23.226;2023-02-28T00:58:41;73.95;;;29.50;;
56242;SDS011;42155;53.096;23.226;2023-02-28T01:00:41;76.75;;;28.98;;
56242;SDS011;42155;53.096;23.226;2023-02-28T01:02:42;75.57;;;28.23;;
56242;SDS011;42155;53.096;23.226;2023-02-28T01:04:42;67.53;;;28.08;;
56242;SDS011;42155;53.096;23.226;2023-02-28T01:06:42;71.15;;;27.83;;
56242;SDS011;42155;53.096;23.226;2023-02-28T01:08:43;74.22;;;27.83;;
56242;SDS011;42155;53.096;23.226;2023-02-28T01:10:44;70.70;;;27.30;;
56242;SDS011;42155;53.096;23.226;2023-02-28T01:12:44;70.00;;;28.08;;
56242;SDS011;42155;53.096;23.226;2023-02-28T01:14:45;73.32;;;28.55;;
56242;SDS011;42155;53.096;23.226;2023-02-28T01:16:45;76.63;;;28.75;;
56242;SDS011;42155;53.096;23.226;2023-02-28T01:18:46;70.78;;;29.02;;
56242;SDS011;42155;53.096;23.226;2023-02-28T01:20:46;79.22;;;28.60;;
56242;SDS011;42155;53.096;23.226;2023-02-28T01:22:47;71.72;;;29.02;;
56242;SDS011;42155;53.096;23.226;2023-02-28T01:24:48;69.25;;;27.20;;
56242;SDS011;42155;53.096;23.226;2023-02-28T01:26:48;76.88;;;30.05;;
56242;SDS011;42155;53.096;23.226;2023-02-28T01:28:49;72.95;;;28.08;;
56242;SDS011;42155;53.096;23.226;2023-02-28T01:30:50;73.90;;;29.80;;
56242;SDS011;42155;53.096;23.226;2023-02-28T01:32:51;74.45;;;28.25;;
56242;SDS011;42155;53.096;23.226;2023-02-28T01:34:51;68.78;;;28.08;;
56242;SDS011;42155;53.096;23.226;2023-02-28T01:36:51;69.75;;;28.05;;
56242;SDS011;42155;53.096;23.226;2023-02-28T01:38:52;80.40;;;29.48;;
56242;SDS011;42155;53.096;23.226;2023-02-28T01:40:53;75.63;;;29.48;;
56242;SDS011;42155;53.096;23.226;2023-02-28T01:42:54;71.43;;;28.00;;
56242;SDS011;42155;53.096;23.226;2023-02-28T01:44:55;73.82;;;27.60;;
56242;SDS011;42155;53.096;23.226;2023-02-28T01:46:57;68.50;;;27.63;;
56242;SDS011;42155;53.096;23.226;2023-02-28T01:49:15;75.30;;;28.23;;
56242;SDS011;42155;53.096;23.226;2023-02-28T01:51:20;66.18;;;26.00;;
56242;SDS011;42155;53.096;23.226;2023-02-28T01:53:26;71.53;;;27.48;;
56242;SDS011;42155;53.096;23.226;2023-02-28T01:55:34;67.80;;;26.73;;
56242;SDS011;42155;53.096;23.226;2023-02-28T01:57:38;65.68;;;26.05;;
56242;SDS011;42155;53.096;23.226;2023-02-28T01:59:50;67.40;;;27.00;;
56242;SDS011;42155;53.096;23.226;2023-02-28T02:01:54;66.10;;;27.02;;
56242;SDS011;42155;53.096;23.226;2023-02-28T02:03:56;74.80;;;29.13;;
56242;SDS011;42155;53.096;23.226;2023-02-28T02:05:58;71.70;;;27.83;;
56242;SDS011;42155;53.096;23.226;2023-02-28T02:08:03;76.13;;;28.23;;
56242;SDS011;42155;53.096;23.226;2023-02-28T02:12:18;75.35;;;29.65;;
56242;SDS011;42155;53.096;23.226;2023-02-28T02:14:54;78.18;;;29.58;;
56242;SDS011;42155;53.096;23.226;2023-02-28T02:36:30;64.63;;;25.88;;
56242;SDS011;42155;53.096;23.226;2023-02-28T02:38:37;63.72;;;24.73;;
56242;SDS011;42155;53.096;23.226;2023-02-28T02:43:01;59.25;;;23.90;;
56242;SDS011;42155;53.096;23.226;2023-02-28T02:45:23;61.30;;;24.63;;
56242;SDS011;42155;53.096;23.226;2023-02-28T02:47:29;59.35;;;24.17;;
56242;SDS011;42155;53.096;23.226;2023-02-28T02:49:32;49.95;;;21.17;;
56242;SDS011;42155;53.096;23.226;2023-02-28T02:51:33;49.90;;;20.88;;
56242;SDS011;42155;53.096;23.226;2023-02-28T02:53:36;51.63;;;20.83;;
56242;SDS011;42155;53.096;23.226;2023-02-28T02:55:42;50.00;;;19.90;;
56242;SDS011;42155;53.096;23.226;2023-02-28T02:57:51;55.88;;;22.33;;
56242;SDS011;42155;53.096;23.226;2023-02-28T02:59:57;49.65;;;20.33;;
56242;SDS011;42155;53.096;23.226;2023-02-28T03:02:01;45.42;;;19.55;;
56242;SDS011;42155;53.096;23.226;2023-02-28T03:04:05;50.75;;;20.08;;
56242;SDS011;42155;53.096;23.226;2023-02-28T03:06:09;45.80;;;20.42;;
56242;SDS011;42155;53.096;23.226;2023-02-28T03:08:09;50.22;;;20.55;;
56242;SDS011;42155;53.096;23.226;2023-02-28T03:10:26;47.67;;;19.48;;
56242;SDS011;42155;53.096;23.226;2023-02-28T03:12:31;47.45;;;18.92;;
56242;SDS011;42155;53.096;23.226;2023-02-28T03:17:19;48.00;;;20.15;;
56242;SDS011;42155;53.096;23.226;2023-02-28T03:20:01;43.70;;;18.42;;
56242;SDS011;42155;53.096;23.226;2023-02-28T03:22:27;41.97;;;18.92;;
56242;SDS011;42155;53.096;23.226;2023-02-28T03:24:54;46.30;;;18.35;;
56242;SDS011;42155;53.096;23.226;2023-02-28T03:27:07;45.45;;;17.52;;
56242;SDS011;42155;53.096;23.226;2023-02-28T03:29:15;39.25;;;16.95;;
56242;SDS011;42155;53.096;23.226;2023-02-28T03:31:20;43.13;;;17.23;;
56242;SDS011;42155;53.096;23.226;2023-02-28T03:33:27;37.47;;;16.35;;
56242;SDS011;42155;53.096;23.226;2023-02-28T03:35:33;41.60;;;17.10;;
56242;SDS011;42155;53.096;23.226;2023-02-28T03:37:38;45.08;;;17.00;;
56242;SDS011;42155;53.096;23.226;2023-02-28T03:39:43;42.22;;;17.13;;
56242;SDS011;42155;53.096;23.226;2023-02-28T03:41:50;45.00;;;18.05;;
56242;SDS011;42155;53.096;23.226;2023-02-28T03:44:03;39.40;;;16.73;;
56242;SDS011;42155;53.096;23.226;2023-02-28T03:46:08;41.28;;;17.45;;
56242;SDS011;42155;53.096;23.226;2023-02-28T03:48:20;43.92;;;16.35;;
56242;SDS011;42155;53.096;23.226;2023-02-28T03:50:37;44.97;;;17.30;;
56242;SDS011;42155;53.096;23.226;2023-02-28T03:52:42;37.28;;;17.23;;
56242;SDS011;42155;53.096;23.226;2023-02-28T03:54:50;37.85;;;16.05;;
56242;SDS011;42155;53.096;23.226;2023-02-28T03:57:04;34.90;;;15.63;;
56242;SDS011;42155;53.096;23.226;2023-02-28T03:59:13;39.88;;;16.52;;
56242;SDS011;42155;53.096;23.226;2023-02-28T04:03:30;37.90;;;16.95;;
56242;SDS011;42155;53.096;23.226;2023-02-28T04:05:30;35.88;;;16.33;;
56242;SDS011;42155;53.096;23.226;2023-02-28T04:07:31;38.83;;;15.27;;
56242;SDS011;42155;53.096;23.226;2023-02-28T04:09:32;43.40;;;16.05;;
56242;SDS011;42155;53.096;23.226;2023-02-28T04:11:40;42.08;;;16.75;;
56242;SDS011;42155;53.096;23.226;2023-02-28T04:13:42;36.13;;;15.23;;
56242;SDS011;42155;53.096;23.226;2023-02-28T04:15:43;42.00;;;15.43;;
56242;SDS011;42155;53.096;23.226;2023-02-28T04:17:43;36.28;;;15.73;;
56242;SDS011;42155;53.096;23.226;2023-02-28T04:19:43;34.40;;;15.65;;
56242;SDS011;42155;53.096;23.226;2023-02-28T04:21:48;38.15;;;15.32;;
56242;SDS011;42155;53.096;23.226;2023-02-28T04:23:49;32.33;;;15.82;;
56242;SDS011;42155;53.096;23.226;2023-02-28T04:25:50;35.20;;;15.55;;
56242;SDS011;42155;53.096;23.226;2023-02-28T04:27:50;35.40;;;15.23;;
56242;SDS011;42155;53.096;23.226;2023-02-28T04:29:50;39.47;;;16.52;;
56242;SDS011;42155;53.096;23.226;2023-02-28T04:31:51;44.72;;;15.90;;
56242;SDS011;42155;53.096;23.226;2023-02-28T04:33:52;43.47;;;16.30;;
56242;SDS011;42155;53.096;23.226;2023-02-28T04:35:59;39.35;;;16.70;;
56242;SDS011;42155;53.096;23.226;2023-02-28T04:38:01;45.05;;;17.08;;
56242;SDS011;42155;53.096;23.226;2023-02-28T04:40:01;40.22;;;17.10;;
56242;SDS011;42155;53.096;23.226;2023-02-28T04:42:03;50.28;;;17.88;;
56242;SDS011;42155;53.096;23.226;2023-02-28T04:44:03;43.92;;;17.85;;
56242;SDS011;42155;53.096;23.226;2023-02-28T04:46:04;40.10;;;16.20;;
56242;SDS011;42155;53.096;23.226;2023-02-28T04:48:06;35.80;;;14.70;;
56242;SDS011;42155;53.096;23.226;2023-02-28T04:50:06;38.92;;;16.42;;
56242;SDS011;42155;53.096;23.226;2023-02-28T04:52:07;40.80;;;16.77;;
56242;SDS011;42155;53.096;23.226;2023-02-28T04:54:07;36.38;;;17.38;;
56242;SDS011;42155;53.096;23.226;2023-02-28T04:56:09;35.60;;;16.52;;
56242;SDS011;42155;53.096;23.226;2023-02-28T04:58:12;43.85;;;17.20;;
56242;SDS011;42155;53.096;23.226;2023-02-28T05:00:13;40.13;;;17.33;;
56242;SDS011;42155;53.096;23.226;2023-02-28T05:02:14;36.05;;;15.48;;
56242;SDS011;42155;53.096;23.226;2023-02-28T05:04:14;45.47;;;19.05;;
56242;SDS011;42155;53.096;23.226;2023-02-28T05:06:15;44.40;;;19.20;;
56242;SDS011;42155;53.096;23.226;2023-02-28T05:08:16;42.05;;;17.88;;
56242;SDS011;42155;53.096;23.226;2023-02-28T05:10:16;47.60;;;19.75;;
56242;SDS011;42155;53.096;23.226;2023-02-28T05:12:17;39.20;;;17.42;;
56242;SDS011;42155;53.096;23.226;2023-02-28T05:14:17;37.78;;;16.45;;
56242;SDS011;42155;53.096;23.226;2023-02-28T05:16:18;39.90;;;15.90;;
56242;SDS011;42155;53.096;23.226;2023-02-28T05:18:18;39.95;;;16.45;;
56242;SDS011;42155;53.096;23.226;2023-02-28T05:20:19;37.67;;;15.98;;
56242;SDS011;42155;53.096;23.226;2023-02-28T05:22:19;39.28;;;15.95;;
56242;SDS011;42155;53.096;23.226;2023-02-28T05:24:19;33.80;;;15.77;;
56242;SDS011;42155;53.096;23.226;2023-02-28T05:26:20;33.08;;;14.60;;
56242;SDS011;42155;53.096;23.226;2023-02-28T05:28:20;34.25;;;16.08;;
56242;SDS011;42155;53.096;23.226;2023-02-28T05:30:21;38.97;;;16.48;;
56242;SDS011;42155;53.096;23.226;2023-02-28T05:32:21;34.25;;;15.02;;
56242;SDS011;42155;53.096;23.226;2023-02-28T05:34:22;36.58;;;16.00;;
56242;SDS011;42155;53.096;23.226;2023-02-28T05:36:22;39.95;;;17.85;;
56242;SDS011;42155;53.096;23.226;2023-02-28T05:38:23;37.65;;;17.60;;
56242;SDS011;42155;53.096;23.226;2023-02-28T05:40:23;32.03;;;15.50;;
56242;SDS011;42155;53.096;23.226;2023-02-28T05:42:24;42.45;;;18.23;;
56242;SDS011;42155;53.096;23.226;2023-02-28T05:44:24;46.75;;;19.52;;
56242;SDS011;42155;53.096;23.226;2023-02-28T05:46:24;42.38;;;18.88;;
56242;SDS011;42155;53.096;23.226;2023-02-28T05:48:25;44.05;;;19.40;;
56242;SDS011;42155;53.096;23.226;2023-02-28T05:50:25;43.03;;;19.52;;
56242;SDS011;42155;53.096;23.226;2023-02-28T05:52:25;44.00;;;18.80;;
56242;SDS011;42155;53.096;23.226;2023-02-28T05:54:26;44.70;;;18.48;;
56242;SDS011;42155;53.096;23.226;2023-02-28T05:56:26;49.72;;;21.10;;
56242;SDS011;42155;53.096;23.226;2023-02-28T05:58:27;49.63;;;20.42;;
56242;SDS011;42155;53.096;23.226;2023-02-28T06:00:28;45.22;;;21.02;;
56242;SDS011;42155;53.096;23.226;2023-02-28T06:02:28;44.55;;;20.40;;
56242;SDS011;42155;53.096;23.226;2023-02-28T06:04:29;44.90;;;23.13;;
56242;SDS011;42155;53.096;23.226;2023-02-28T06:06:29;54.58;;;26.42;;
56242;SDS011;42155;53.096;23.226;2023-02-28T06:08:30;73.05;;;34.95;;
56242;SDS011;42155;53.096;23.226;2023-02-28T06:10:30;70.65;;;33.72;;
56242;SDS011;42155;53.096;23.226;2023-02-28T06:12:30;73.53;;;35.20;;
56242;SDS011;42155;53.096;23.226;2023-02-28T06:14:31;66.85;;;34.58;;
56242;SDS011;42155;53.096;23.226;2023-02-28T06:16:33;67.82;;;35.33;;
56242;SDS011;42155;53.096;23.226;2023-02-28T06:18:34;66.38;;;33.75;;
56242;SDS011;42155;53.096;23.226;2023-02-28T06:20:34;67.22;;;34.30;;
56242;SDS011;42155;53.096;23.226;2023-02-28T06:22:35;64.97;;;32.63;;
56242;SDS011;42155;53.096;23.226;2023-02-28T06:24:36;63.35;;;32.95;;
56242;SDS011;42155;53.096;23.226;2023-02-28T06:26:36;60.50;;;30.63;;
56242;SDS011;42155;53.096;23.226;2023-02-28T06:28:37;58.13;;;31.50;;
56242;SDS011;42155;53.096;23.226;2023-02-28T06:30:37;62.15;;;27.98;;
56242;SDS011;42155;53.096;23.226;2023-02-28T06:32:38;54.38;;;27.23;;
56242;SDS011;42155;53.096;23.226;2023-02-28T06:34:39;56.22;;;27.67;;
56242;SDS011;42155;53.096;23.226;2023-02-28T06:36:39;48.20;;;23.48;;
56242;SDS011;42155;53.096;23.226;2023-02-28T06:38:41;48.63;;;24.33;;
56242;SDS011;42155;53.096;23.226;2023-02-28T06:40:41;52.90;;;24.92;;
56242;SDS011;42155;53.096;23.226;2023-02-28T06:42:42;52.60;;;24.55;;
56242;SDS011;42155;53.096;23.226;2023-02-28T06:44:42;52.55;;;23.73;;
56242;SDS011;42155;53.096;23.226;2023-02-28T06:46:43;48.28;;;22.17;;
56242;SDS011;42155;53.096;23.226;2023-02-28T06:48:44;44.00;;;20.70;;
56242;SDS011;42155;53.096;23.226;2023-02-28T06:50:45;45.35;;;21.13;;
56242;SDS011;42155;53.096;23.226;2023-02-28T06:52:46;39.08;;;18.90;;
56242;SDS011;42155;53.096;23.226;2023-02-28T06:54:47;48.38;;;21.80;;
56242;SDS011;42155;53.096;23.226;2023-02-28T06:56:47;46.65;;;19.80;;
56242;SDS011;42155;53.096;23.226;2023-02-28T06:58:48;32.15;;;15.15;;
56242;SDS011;42155;53.096;23.226;2023-02-28T07:00:50;27.02;;;14.25;;
56242;SDS011;42155;53.096;23.226;2023-02-28T07:02:52;26.60;;;13.05;;
56242;SDS011;42155;53.096;23.226;2023-02-28T07:04:52;26.42;;;12.68;;
56242;SDS011;42155;53.096;23.226;2023-02-28T07:06:53;23.73;;;11.60;;
56242;SDS011;42155;53.096;23.226;2023-02-28T07:08:54;26.02;;;12.43;;
56242;SDS011;42155;53.096;23.226;2023-02-28T07:10:55;24.58;;;12.43;;
56242;SDS011;42155;53.096;23.226;2023-02-28T07:12:55;23.90;;;11.63;;
56242;SDS011;42155;53.096;23.226;2023-02-28T07:14:56;24.35;;;12.00;;
56242;SDS011;42155;53.096;23.226;2023-02-28T07:16:56;25.20;;;12.60;;
56242;SDS011;42155;53.096;23.226;2023-02-28T07:18:56;31.60;;;12.65;;
56242;SDS011;42155;53.096;23.226;2023-02-28T07:20:57;24.48;;;11.75;;
56242;SDS011;42155;53.096;23.226;2023-02-28T07:22:58;27.45;;;12.57;;
56242;SDS011;42155;53.096;23.226;2023-02-28T07:24:58;24.08;;;12.52;;
56242;SDS011;42155;53.096;23.226;2023-02-28T07:26:58;31.20;;;12.52;;
56242;SDS011;42155;53.096;23.226;2023-02-28T07:28:59;26.27;;;12.60;;
56242;SDS011;42155;53.096;23.226;2023-02-28T07:31:06;27.13;;;12.40;;
56242;SDS011;42155;53.096;23.226;2023-02-28T07:33:07;27.67;;;13.35;;
56242;SDS011;42155;53.096;23.226;2023-02-28T07:35:08;25.05;;;13.13;;
56242;SDS011;42155;53.096;23.226;2023-02-28T07:37:08;30.05;;;13.15;;
56242;SDS011;42155;53.096;23.226;2023-02-28T07:39:09;25.92;;;12.50;;
56242;SDS011;42155;53.096;23.226;2023-02-28T07:41:09;30.98;;;12.70;;
56242;SDS011;42155;53.096;23.226;2023-02-28T07:43:10;24.45;;;12.43;;
56242;SDS011;42155;53.096;23.226;2023-02-28T07:45:11;22.17;;;11.07;;
56242;SDS011;42155;53.096;23.226;2023-02-28T07:47:11;23.00;;;10.55;;
56242;SDS011;42155;53.096;23.226;2023-02-28T07:49:12;21.75;;;11.20;;
56242;SDS011;42155;53.096;23.226;2023-02-28T07:51:12;18.70;;;10.43;;
56242;SDS011;42155;53.096;23.226;2023-02-28T07:53:12;25.77;;;9.48;;
56242;SDS011;42155;53.096;23.226;2023-02-28T07:55:13;20.65;;;9.82;;
56242;SDS011;42155;53.096;23.226;2023-02-28T07:57:13;17.20;;;8.85;;
56242;SDS011;42155;53.096;23.226;2023-02-28T07:59:14;16.77;;;8.10;;
56242;SDS011;42155;53.096;23.226;2023-02-28T08:01:14;16.77;;;8.43;;
56242;SDS011;42155;53.096;23.226;2023-02-28T08:03:15;17.45;;;8.65;;
56242;SDS011;42155;53.096;23.226;2023-02-28T08:05:16;18.25;;;8.02;;
56242;SDS011;42155;53.096;23.226;2023-02-28T08:07:17;19.55;;;8.95;;
56242;SDS011;42155;53.096;23.226;2023-02-28T08:09:18;17.45;;;9.32;;
56242;SDS011;42155;53.096;23.226;2023-02-28T08:11:18;19.20;;;8.93;;
56242;SDS011;42155;53.096;23.226;2023-02-28T08:13:19;18.30;;;8.75;;
56242;SDS011;42155;53.096;23.226;2023-02-28T08:15:19;14.68;;;7.22;;
56242;SDS011;42155;53.096;23.226;2023-02-28T08:17:19;16.42;;;7.93;;
56242;SDS011;42155;53.096;23.226;2023-02-28T08:19:20;18.60;;;7.63;;
56242;SDS011;42155;53.096;23.226;2023-02-28T08:21:20;17.95;;;8.32;;
56242;SDS011;42155;53.096;23.226;2023-02-28T08:23:21;15.90;;;6.93;;
56242;SDS011;42155;53.096;23.226;2023-02-28T08:25:21;13.90;;;7.28;;
56242;SDS011;42155;53.096;23.226;2023-02-28T08:27:21;12.75;;;6.53;;
56242;SDS011;42155;53.096;23.226;2023-02-28T08:29:22;11.93;;;6.20;;
56242;SDS011;42155;53.096;23.226;2023-02-28T08:31:22;13.40;;;6.57;;
56242;SDS011;42155;53.096;23.226;2023-02-28T08:33:23;14.40;;;7.13;;
56242;SDS011;42155;53.096;23.226;2023-02-28T08:35:24;16.23;;;7.22;;
56242;SDS011;42155;53.096;23.226;2023-02-28T08:37:25;13.65;;;6.65;;
56242;SDS011;42155;53.096;23.226;2023-02-28T08:39:25;12.68;;;6.60;;
56242;SDS011;42155;53.096;23.226;2023-02-28T08:41:25;11.52;;;6.20;;
56242;SDS011;42155;53.096;23.226;2023-02-28T08:43:26;12.23;;;6.00;;
56242;SDS011;42155;53.096;23.226;2023-02-28T08:45:27;16.67;;;8.35;;
56242;SDS011;42155;53.096;23.226;2023-02-28T08:47:27;14.88;;;7.43;;
56242;SDS011;42155;53.096;23.226;2023-02-28T08:49:28;13.05;;;6.68;;
56242;SDS011;42155;53.096;23.226;2023-02-28T08:51:28;15.02;;;6.95;;
56242;SDS011;42155;53.096;23.226;2023-02-28T08:53:29;9.85;;;5.50;;
56242;SDS011;42155;53.096;23.226;2023-02-28T08:55:30;13.38;;;6.68;;
56242;SDS011;42155;53.096;23.226;2023-02-28T08:57:30;12.10;;;6.15;;
56242;SDS011;42155;53.096;23.226;2023-02-28T08:59:31;12.57;;;5.95;;
56242;SDS011;42155;53.096;23.226;2023-02-28T09:01:31;12.15;;;5.88;;
56242;SDS011;42155;53.096;23.226;2023-02-28T09:03:32;12.43;;;6.05;;
56242;SDS011;42155;53.096;23.226;2023-02-28T09:05:32;12.35;;;5.97;;
56242;SDS011;42155;53.096;23.226;2023-02-28T09:07:32;10.30;;;5.93;;
56242;SDS011;42155;53.096;23.226;2023-02-28T09:09:33;14.45;;;6.65;;
56242;SDS011;42155;53.096;23.226;2023-02-28T09:11:34;9.20;;;5.57;;
56242;SDS011;42155;53.096;23.226;2023-02-28T09:13:34;13.10;;;6.07;;
56242;SDS011;42155;53.096;23.226;2023-02-28T09:15:36;11.23;;;6.13;;
56242;SDS011;42155;53.096;23.226;2023-02-28T09:17:37;13.50;;;5.95;;
56242;SDS011;42155;53.096;23.226;2023-02-28T09:19:38;11.93;;;5.90;;
56242;SDS011;42155;53.096;23.226;2023-02-28T09:21:38;11.63;;;6.57;;
56242;SDS011;42155;53.096;23.226;2023-02-28T09:23:38;12.10;;;6.65;;
56242;SDS011;42155;53.096;23.226;2023-02-28T09:25:49;14.75;;;6.53;;
56242;SDS011;42155;53.096;23.226;2023-02-28T09:27:53;13.98;;;7.00;;
56242;SDS011;42155;53.096;23.226;2023-02-28T09:29:53;12.10;;;5.85;;
56242;SDS011;42155;53.096;23.226;2023-02-28T09:31:53;11.23;;;5.45;;
56242;SDS011;42155;53.096;23.226;2023-02-28T09:33:54;12.82;;;6.35;;
56242;SDS011;42155;53.096;23.226;2023-02-28T09:36:00;17.48;;;6.57;;
56242;SDS011;42155;53.096;23.226;2023-02-28T09:38:01;13.55;;;5.95;;
56242;SDS011;42155;53.096;23.226;2023-02-28T09:40:01;11.75;;;6.60;;
56242;SDS011;42155;53.096;23.226;2023-02-28T09:42:02;13.43;;;6.28;;
56242;SDS011;42155;53.096;23.226;2023-02-28T09:44:04;12.10;;;5.72;;
56242;SDS011;42155;53.096;23.226;2023-02-28T09:48:33;11.57;;;6.13;;
56242;SDS011;42155;53.096;23.226;2023-02-28T09:50:40;10.13;;;4.97;;
56242;SDS011;42155;53.096;23.226;2023-02-28T09:52:44;9.15;;;5.57;;
56242;SDS011;42155;53.096;23.226;2023-02-28T09:54:48;13.05;;;5.72;;
56242;SDS011;42155;53.096;23.226;2023-02-28T10:01:56;12.70;;;5.80;;
56242;SDS011;42155;53.096;23.226;2023-02-28T10:04:02;12.65;;;6.32;;
56242;SDS011;42155;53.096;23.226;2023-02-28T10:06:39;10.30;;;5.03;;
56242;SDS011;42155;53.096;23.226;2023-02-28T10:10:59;10.52;;;5.30;;
56242;SDS011;42155;53.096;23.226;2023-02-28T10:13:02;13.93;;;5.93;;
56242;SDS011;42155;53.096;23.226;2023-02-28T10:15:07;10.73;;;5.40;;
56242;SDS011;42155;53.096;23.226;2023-02-28T10:17:18;13.15;;;5.85;;
56242;SDS011;42155;53.096;23.226;2023-02-28T10:26:17;10.65;;;5.32;;
56242;SDS011;42155;53.096;23.226;2023-02-28T10:28:18;9.73;;;5.25;;
56242;SDS011;42155;53.096;23.226;2023-02-28T10:30:18;10.00;;;5.28;;
56242;SDS011;42155;53.096;23.226;2023-02-28T10:32:19;10.63;;;5.05;;
56242;SDS011;42155;53.096;23.226;2023-02-28T10:34:22;11.18;;;5.60;;
56242;SDS011;42155;53.096;23.226;2023-02-28T10:36:24;9.52;;;4.72;;
56242;SDS011;42155;53.096;23.226;2023-02-28T10:38:26;13.85;;;6.10;;
56242;SDS011;42155;53.096;23.226;2023-02-28T10:40:30;12.07;;;5.05;;
56242;SDS011;42155;53.096;23.226;2023-02-28T10:42:34;9.40;;;4.80;;
56242;SDS011;42155;53.096;23.226;2023-02-28T10:44:34;9.70;;;4.82;;
56242;SDS011;42155;53.096;23.226;2023-02-28T10:46:34;9.77;;;5.07;;
56242;SDS011;42155;53.096;23.226;2023-02-28T10:48:45;11.50;;;5.68;;
56242;SDS011;42155;53.096;23.226;2023-02-28T10:52:50;10.15;;;4.40;;
56242;SDS011;42155;53.096;23.226;2023-02-28T10:54:50;9.30;;;4.75;;
56242;SDS011;42155;53.096;23.226;2023-02-28T10:57:24;9.65;;;5.07;;
56242;SDS011;42155;53.096;23.226;2023-02-28T10:59:28;9.15;;;4.82;;
56242;SDS011;42155;53.096;23.226;2023-02-28T11:03:32;7.63;;;4.47;;
56242;SDS011;42155;53.096;23.226;2023-02-28T11:05:35;10.75;;;4.97;;
56242;SDS011;42155;53.096;23.226;2023-02-28T11:07:36;11.40;;;5.22;;
56242;SDS011;42155;53.096;23.226;2023-02-28T11:09:38;12.15;;;5.32;;
56242;SDS011;42155;53.096;23.226;2023-02-28T11:11:44;11.45;;;4.85;;
56242;SDS011;42155;53.096;23.226;2023-02-28T11:13:46;9.80;;;5.00;;
56242;SDS011;42155;53.096;23.226;2023-02-28T11:15:51;10.82;;;5.60;;
56242;SDS011;42155;53.096;23.226;2023-02-28T11:18:28;9.27;;;5.53;;
56242;SDS011;42155;53.096;23.226;2023-02-28T11:20:24;9.30;;;5.22;;
56242;SDS011;42155;53.096;23.226;2023-02-28T11:22:27;8.07;;;4.72;;
56242;SDS011;42155;53.096;23.226;2023-02-28T11:24:33;9.52;;;4.60;;
56242;SDS011;42155;53.096;23.226;2023-02-28T11:26:42;9.55;;;4.85;;
56242;SDS011;42155;53.096;23.226;2023-02-28T11:28:44;9.88;;;5.28;;
56242;SDS011;42155;53.096;23.226;2023-02-28T11:30:44;11.27;;;5.22;;
56242;SDS011;42155;53.096;23.226;2023-02-28T11:32:48;10.05;;;5.38;;
56242;SDS011;42155;53.096;23.226;2023-02-28T11:37:31;12.13;;;5.63;;
56242;SDS011;42155;53.096;23.226;2023-02-28T11:39:45;10.45;;;5.30;;
56242;SDS011;42155;53.096;23.226;2023-02-28T11:49:13;10.55;;;6.00;;
56242;SDS011;42155;53.096;23.226;2023-02-28T11:51:28;11.13;;;5.30;;
56242;SDS011;42155;53.096;23.226;2023-02-28T12:01:03;10.90;;;4.97;;
56242;SDS011;42155;53.096;23.226;2023-02-28T12:03:50;9.10;;;5.70;;
56242;SDS011;42155;53.096;23.226;2023-02-28T12:11:19;13.40;;;5.68;;
56242;SDS011;42155;53.096;23.226;2023-02-28T12:13:48;10.48;;;5.43;;
56242;SDS011;42155;53.096;23.226;2023-02-28T12:18:08;7.70;;;4.93;;
56242;SDS011;42155;53.096;23.226;2023-02-28T12:20:30;11.88;;;5.88;;
56242;SDS011;42155;53.096;23.226;2023-02-28T12:25:02;10.15;;;5.15;;
56242;SDS011;42155;53.096;23.226;2023-02-28T12:27:07;11.35;;;5.32;;
56242;SDS011;42155;53.096;23.226;2023-02-28T12:29:14;11.30;;;5.40;;
56242;SDS011;42155;53.096;23.226;2023-02-28T12:31:29;9.05;;;4.88;;
56242;SDS011;42155;53.096;23.226;2023-02-28T12:33:35;8.02;;;4.63;;
56242;SDS011;42155;53.096;23.226;2023-02-28T12:35:55;8.13;;;4.78;;
56242;SDS011;42155;53.096;23.226;2023-02-28T12:37:58;9.77;;;5.07;;
56242;SDS011;42155;53.096;23.226;2023-02-28T12:40:12;13.77;;;5.78;;
56242;SDS011;42155;53.096;23.226;2023-02-28T12:42:19;9.00;;;5.07;;
56242;SDS011;42155;53.096;23.226;2023-02-28T12:44:37;10.38;;;5.68;;
56242;SDS011;42155;53.096;23.226;2023-02-28T12:46:55;9.20;;;5.22;;
56242;SDS011;42155;53.096;23.226;2023-02-28T12:49:12;10.18;;;5.75;;
56242;SDS011;42155;53.096;23.226;2023-02-28T12:51:19;11.02;;;5.32;;
56242;SDS011;42155;53.096;23.226;2023-02-28T12:53:28;12.48;;;5.95;;
56242;SDS011;42155;53.096;23.226;2023-02-28T12:55:40;10.90;;;5.60;;
56242;SDS011;42155;53.096;23.226;2023-02-28T12:57:50;9.80;;;5.57;;
56242;SDS011;42155;53.096;23.226;2023-02-28T13:00:03;10.27;;;5.47;;
56242;SDS011;42155;53.096;23.226;2023-02-28T13:02:19;16.95;;;5.88;;
56242;SDS011;42155;53.096;23.226;2023-02-28T13:09:37;11.18;;;6.47;;
56242;SDS011;42155;53.096;23.226;2023-02-28T13:13:41;11.77;;;5.90;;
56242;SDS011;42155;53.096;23.226;2023-02-28T13:18:20;9.95;;;6.03;;
56242;SDS011;42155;53.096;23.226;2023-02-28T13:20:33;13.00;;;6.53;;
56242;SDS011;42155;53.096;23.226;2023-02-28T13:22:41;16.63;;;7.78;;